Time;durP1;ratioP1;P1;durP2;ratioP2;P2;SDS_P1;SDS_P2;PMS_P1;PMS_P2;Temp;Humidity;BMP_temperature;BMP_pressure;BME280_temperature;BME280_humidity;BME280_pressure;Samples;Min_cycle;Max_cycle;Signal;HPM_P1;HPM_P2
2021/01/06 00:01:38;;;;;;;36.33;17.20;;;;;;;;;;5068602;28;20441;-72
2021/01/06 00:04:04;;;;;;;32.77;18.03;;;;;;;;;;5078152;28;20456;-72
2021/01/06 00:06:31;;;;;;;28.93;15.73;;;;;;;;;;5073781;28;20494;-72
2021/01/06 00:08:58;;;;;;;37.90;15.80;;;;;;;;;;5068879;28;20448;-72
2021/01/06 00:11:31;;;;;;;35.93;15.97;;;;;;;;;;5062825;28;20464;-72
2021/01/06 00:13:57;;;;;;;34.53;16.50;;;;;;;;;;5065853;28;20915;-72
2021/01/06 00:16:24;;;;;;;33.20;18.30;;;;;;;;;;5069914;28;20540;-72
2021/01/06 00:18:51;;;;;;;34.77;18.13;;;;;;;;;;5063784;28;20453;-72
2021/01/06 00:21:18;;;;;;;33.77;18.33;;;;;;;;;;5069835;28;20452;-72
2021/01/06 00:23:45;;;;;;;34.60;17.27;;;;;;;;;;5072652;28;20477;-72
2021/01/06 00:26:11;;;;;;;40.23;18.80;;;;;;;;;;5076416;28;20448;-72
2021/01/06 00:28:38;;;;;;;37.20;17.47;;;;;;;;;;5079577;28;20505;-72
2021/01/06 00:31:04;;;;;;;37.23;16.87;;;;;;;;;;5066833;28;20457;-73
2021/01/06 00:33:32;;;;;;;36.07;17.53;;;;;;;;;;5066175;28;20461;-72
2021/01/06 00:36:01;;;;;;;31.80;18.80;;;;;;;;;;5072713;28;20478;-72
2021/01/06 00:38:28;;;;;;;31.53;16.20;;;;;;;;;;5068631;28;20484;-72
2021/01/06 00:40:55;;;;;;;31.23;16.73;;;;;;;;;;5069362;28;20461;-72
2021/01/06 00:43:22;;;;;;;36.80;18.07;;;;;;;;;;5073461;28;20457;-72
2021/01/06 00:45:48;;;;;;;31.47;16.60;;;;;;;;;;5076357;28;20448;-72
2021/01/06 00:48:15;;;;;;;32.60;18.00;;;;;;;;;;5087949;28;20479;-72
2021/01/06 00:50:42;;;;;;;36.30;19.87;;;;;;;;;;5071501;28;20502;-72
2021/01/06 00:53:13;;;;;;;28.63;16.17;;;;;;;;;;5076177;28;20502;-72
2021/01/06 00:55:40;;;;;;;28.20;14.63;;;;;;;;;;5071524;28;20480;-72
2021/01/06 00:58:06;;;;;;;31.30;17.27;;;;;;;;;;5071144;28;20472;-73
2021/01/06 01:00:33;;;;;;;33.87;17.03;;;;;;;;;;5066679;28;20877;-72
2021/01/06 01:03:00;;;;;;;35.67;16.80;;;;;;;;;;5063733;28;20456;-72
2021/01/06 01:05:27;;;;;;;36.80;15.67;;;;;;;;;;5081375;28;20543;-72
2021/01/06 01:07:54;;;;;;;36.50;17.73;;;;;;;;;;5073095;28;20490;-72
2021/01/06 01:10:23;;;;;;;34.60;16.53;;;;;;;;;;5077257;28;20453;-72
2021/01/06 01:12:51;;;;;;;34.83;16.03;;;;;;;;;;5070537;28;20464;-72
2021/01/06 01:15:18;;;;;;;29.00;16.93;;;;;;;;;;5075220;28;20536;-72
2021/01/06 01:17:44;;;;;;;35.13;16.20;;;;;;;;;;5074881;28;20480;-72
2021/01/06 01:20:11;;;;;;;30.47;15.10;;;;;;;;;;5062821;28;20964;-72
2021/01/06 01:22:38;;;;;;;36.07;18.10;;;;;;;;;;5065765;28;20461;-72
2021/01/06 01:25:05;;;;;;;46.03;16.53;;;;;;;;;;5069744;28;20843;-72
2021/01/06 01:27:33;;;;;;;36.90;16.53;;;;;;;;;;5069632;28;20474;-72
2021/01/06 01:29:59;;;;;;;40.53;17.17;;;;;;;;;;5084610;28;20829;-72
2021/01/06 01:32:26;;;;;;;29.47;16.10;;;;;;;;;;5073580;28;20456;-72
2021/01/06 01:34:52;;;;;;;41.27;19.30;;;;;;;;;;5070926;28;20513;-72
2021/01/06 01:37:19;;;;;;;33.87;17.20;;;;;;;;;;5071814;28;20989;-72
2021/01/06 01:39:45;;;;;;;30.00;16.87;;;;;;;;;;5076417;28;20461;-72
2021/01/06 01:42:12;;;;;;;38.43;18.73;;;;;;;;;;5078106;28;20825;-72
2021/01/06 01:44:59;;;;;;;35.23;16.97;;;;;;;;;;5063249;28;20450;-72
2021/01/06 01:47:27;;;;;;;36.43;19.67;;;;;;;;;;5065862;28;20479;-72
2021/01/06 01:49:54;;;;;;;28.10;16.20;;;;;;;;;;5072860;28;20444;-72
2021/01/06 01:52:23;;;;;;;33.00;17.27;;;;;;;;;;5067554;28;20501;-72
2021/01/06 01:54:51;;;;;;;30.17;16.37;;;;;;;;;;5071813;28;20457;-72
2021/01/06 01:57:19;;;;;;;38.83;18.10;;;;;;;;;;5067529;28;20533;-72
2021/01/06 01:59:48;;;;;;;39.17;19.20;;;;;;;;;;5071489;28;22022;-72
2021/01/06 02:02:17;;;;;;;38.30;19.50;;;;;;;;;;5074629;28;20448;-72
2021/01/06 02:04:47;;;;;;;31.63;18.17;;;;;;;;;;5081868;28;20452;-72
2021/01/06 02:07:16;;;;;;;31.77;17.47;;;;;;;;;;5066073;28;20460;-71
2021/01/06 02:09:47;;;;;;;38.43;17.23;;;;;;;;;;5068639;28;20507;-72
2021/01/06 02:12:15;;;;;;;36.40;19.30;;;;;;;;;;5071576;28;20441;-72
2021/01/06 02:14:51;;;;;;;35.73;18.10;;;;;;;;;;5078254;28;20459;-72
2021/01/06 02:17:19;;;;;;;35.57;17.13;;;;;;;;;;5067242;28;20571;-72
2021/01/06 02:19:46;;;;;;;39.43;18.27;;;;;;;;;;5068310;28;20477;-72
2021/01/06 02:22:15;;;;;;;40.73;18.63;;;;;;;;;;5068528;28;20522;-72
2021/01/06 02:24:42;;;;;;;34.30;17.17;;;;;;;;;;5062549;28;20465;-72
2021/01/06 02:27:08;;;;;;;48.30;19.47;;;;;;;;;;5071474;28;20464;-72
2021/01/06 02:29:36;;;;;;;40.47;18.77;;;;;;;;;;5071129;28;20453;-72
2021/01/06 02:32:03;;;;;;;37.90;21.83;;;;;;;;;;5070602;28;20989;-72
2021/01/06 02:34:31;;;;;;;39.40;20.00;;;;;;;;;;5068996;28;20449;-72
2021/01/06 02:36:57;;;;;;;42.30;18.90;;;;;;;;;;5066224;28;20499;-72
2021/01/06 02:39:25;;;;;;;37.60;18.90;;;;;;;;;;5063160;28;20445;-72
2021/01/06 02:41:52;;;;;;;41.00;19.17;;;;;;;;;;5064996;28;20460;-72
2021/01/06 02:44:19;;;;;;;46.73;19.80;;;;;;;;;;5074111;28;20532;-72
2021/01/06 02:46:46;;;;;;;41.87;20.63;;;;;;;;;;5074547;28;20468;-72
2021/01/06 02:49:14;;;;;;;32.60;16.50;;;;;;;;;;5071655;28;20457;-72
2021/01/06 02:51:43;;;;;;;39.60;18.40;;;;;;;;;;5064388;28;20818;-72
2021/01/06 02:54:10;;;;;;;40.80;18.50;;;;;;;;;;5068177;28;20483;-72
2021/01/06 02:56:39;;;;;;;40.50;19.67;;;;;;;;;;5065052;28;20489;-72
2021/01/06 02:59:07;;;;;;;42.50;21.67;;;;;;;;;;5070586;28;20514;-72
2021/01/06 03:01:36;;;;;;;43.73;20.23;;;;;;;;;;5070244;28;20465;-72
2021/01/06 03:04:03;;;;;;;41.77;19.73;;;;;;;;;;5060577;28;20457;-72
2021/01/06 03:06:31;;;;;;;43.47;18.40;;;;;;;;;;5070329;28;20449;-71
2021/01/06 03:08:58;;;;;;;38.70;18.60;;;;;;;;;;5069537;28;20444;-73
2021/01/06 03:11:25;;;;;;;44.70;20.47;;;;;;;;;;5060938;28;20457;-72
2021/01/06 03:13:52;;;;;;;41.00;19.50;;;;;;;;;;5066647;28;20487;-72
2021/01/06 03:16:19;;;;;;;42.07;19.73;;;;;;;;;;5064116;28;21016;-72
2021/01/06 03:18:46;;;;;;;51.97;21.70;;;;;;;;;;5067780;28;20449;-72
2021/01/06 03:21:14;;;;;;;43.47;19.43;;;;;;;;;;5066425;28;21147;-72
2021/01/06 03:23:43;;;;;;;46.67;20.90;;;;;;;;;;5055364;28;20495;-72
2021/01/06 03:26:12;;;;;;;43.00;19.00;;;;;;;;;;5066330;28;20522;-72
2021/01/06 03:28:39;;;;;;;42.70;19.80;;;;;;;;;;5068267;28;20473;-72
2021/01/06 03:31:09;;;;;;;30.80;17.73;;;;;;;;;;5071340;28;20441;-72
2021/01/06 03:33:38;;;;;;;42.10;21.30;;;;;;;;;;5059943;28;20449;-72
2021/01/06 03:36:08;;;;;;;41.37;21.37;;;;;;;;;;5065779;28;20480;-72
2021/01/06 03:38:35;;;;;;;44.80;19.97;;;;;;;;;;5064461;28;20887;-71
2021/01/06 03:41:02;;;;;;;47.33;22.07;;;;;;;;;;5064474;28;20455;-72
2021/01/06 03:43:30;;;;;;;37.07;19.43;;;;;;;;;;5067716;28;20449;-72
2021/01/06 03:46:00;;;;;;;42.57;19.40;;;;;;;;;;5070819;28;20463;-72
2021/01/06 03:48:30;;;;;;;36.60;18.40;;;;;;;;;;5068402;28;20460;-72
2021/01/06 03:50:59;;;;;;;39.43;19.40;;;;;;;;;;5069271;28;20752;-72
2021/01/06 03:53:31;;;;;;;40.23;20.10;;;;;;;;;;5064030;28;20457;-72
2021/01/06 03:56:00;;;;;;;39.27;19.60;;;;;;;;;;5069957;28;20492;-72
2021/01/06 03:58:33;;;;;;;38.27;20.57;;;;;;;;;;5070979;28;20842;-72
2021/01/06 04:01:05;;;;;;;33.97;18.40;;;;;;;;;;5063989;28;20440;-72
2021/01/06 04:03:37;;;;;;;35.00;18.33;;;;;;;;;;5070550;28;20441;-72
2021/01/06 04:06:04;;;;;;;42.97;20.63;;;;;;;;;;5063807;28;20454;-72
2021/01/06 04:08:39;;;;;;;40.40;19.77;;;;;;;;;;5072159;28;20907;-72
2021/01/06 04:11:08;;;;;;;40.13;19.73;;;;;;;;;;5067105;28;20473;-72
2021/01/06 04:13:35;;;;;;;43.10;18.97;;;;;;;;;;5067582;28;20449;-72
2021/01/06 04:16:01;;;;;;;38.10;18.30;;;;;;;;;;5069441;28;21062;-72
2021/01/06 04:18:28;;;;;;;38.23;20.23;;;;;;;;;;5066020;28;20489;-72
2021/01/06 04:21:02;;;;;;;44.70;20.00;;;;;;;;;;5068204;28;20523;-72
2021/01/06 04:23:29;;;;;;;42.73;21.80;;;;;;;;;;5057930;28;20451;-72
2021/01/06 04:25:56;;;;;;;37.77;20.30;;;;;;;;;;5066555;28;20970;-72
2021/01/06 04:28:24;;;;;;;41.90;19.70;;;;;;;;;;5068004;28;20996;-72
2021/01/06 04:30:51;;;;;;;45.17;20.17;;;;;;;;;;5064729;28;20450;-72
2021/01/06 04:33:19;;;;;;;35.03;17.60;;;;;;;;;;5066306;28;20460;-72
2021/01/06 04:35:46;;;;;;;43.63;21.30;;;;;;;;;;5068974;28;20491;-72
2021/01/06 04:38:18;;;;;;;42.00;18.47;;;;;;;;;;5070977;28;21087;-72
2021/01/06 04:40:46;;;;;;;42.00;18.83;;;;;;;;;;5073104;28;20449;-72
2021/01/06 04:43:17;;;;;;;35.23;18.27;;;;;;;;;;5065611;28;20454;-72
2021/01/06 04:45:46;;;;;;;36.20;17.60;;;;;;;;;;5063388;28;20462;-72
2021/01/06 04:48:16;;;;;;;42.90;19.17;;;;;;;;;;5065301;28;20518;-72
2021/01/06 04:50:55;;;;;;;41.87;20.90;;;;;;;;;;5067366;28;20488;-72
2021/01/06 04:53:29;;;;;;;38.67;18.60;;;;;;;;;;5068935;28;20453;-72
2021/01/06 04:56:01;;;;;;;36.10;19.53;;;;;;;;;;5061421;28;20487;-72
2021/01/06 04:58:32;;;;;;;38.40;19.07;;;;;;;;;;5061638;28;20477;-72
2021/01/06 05:01:03;;;;;;;36.23;17.77;;;;;;;;;;5062430;28;20562;-72
2021/01/06 05:03:37;;;;;;;42.53;19.27;;;;;;;;;;5073243;28;20800;-72
2021/01/06 05:06:10;;;;;;;45.53;18.27;;;;;;;;;;5073339;28;20440;-72
2021/01/06 05:08:39;;;;;;;39.10;17.73;;;;;;;;;;5070253;28;20488;-71
2021/01/06 05:11:08;;;;;;;38.67;19.50;;;;;;;;;;5065539;28;20906;-72
2021/01/06 05:13:37;;;;;;;36.03;19.33;;;;;;;;;;5065841;28;20830;-72
2021/01/06 05:16:04;;;;;;;38.47;17.57;;;;;;;;;;5059636;28;20470;-72
2021/01/06 05:18:31;;;;;;;39.00;17.73;;;;;;;;;;5063573;28;20477;-72
2021/01/06 05:20:58;;;;;;;39.33;20.53;;;;;;;;;;5065155;28;20454;-72
2021/01/06 05:23:26;;;;;;;40.70;19.50;;;;;;;;;;5065829;28;20457;-72
2021/01/06 05:25:54;;;;;;;38.73;19.70;;;;;;;;;;5066406;28;20456;-72
2021/01/06 05:28:22;;;;;;;36.97;17.57;;;;;;;;;;5070030;28;20567;-72
2021/01/06 05:30:51;;;;;;;39.83;19.27;;;;;;;;;;5071185;28;20450;-72
2021/01/06 05:33:21;;;;;;;45.90;21.13;;;;;;;;;;5068239;28;20453;-72
2021/01/06 05:35:48;;;;;;;42.30;20.20;;;;;;;;;;5075487;28;20847;-72
2021/01/06 05:38:15;;;;;;;41.47;20.47;;;;;;;;;;5062516;28;20471;-72
2021/01/06 05:40:43;;;;;;;38.30;19.30;;;;;;;;;;5069177;28;20449;-72
2021/01/06 05:43:21;;;;;;;35.33;18.27;;;;;;;;;;5059410;28;20465;-72
2021/01/06 05:45:52;;;;;;;47.93;20.53;;;;;;;;;;5071327;28;20519;-72
2021/01/06 05:48:20;;;;;;;38.37;19.10;;;;;;;;;;5060118;28;20485;-72
2021/01/06 05:50:52;;;;;;;45.13;20.70;;;;;;;;;;5069548;28;20890;-72
2021/01/06 05:53:23;;;;;;;40.30;19.67;;;;;;;;;;5064127;28;20453;-72
2021/01/06 05:55:51;;;;;;;43.70;19.00;;;;;;;;;;5067679;28;20513;-72
2021/01/06 05:58:21;;;;;;;42.23;19.10;;;;;;;;;;5069818;28;20485;-72
2021/01/06 06:00:52;;;;;;;39.07;19.50;;;;;;;;;;5069809;28;20453;-72
2021/01/06 06:03:42;;;;;;;43.47;19.67;;;;;;;;;;5072412;28;20456;-72
2021/01/06 06:06:28;;;;;;;49.93;20.80;;;;;;;;;;5067929;28;20437;-72
2021/01/06 06:09:02;;;;;;;38.80;19.77;;;;;;;;;;5073155;28;20462;-72
2021/01/06 06:11:42;;;;;;;38.83;19.57;;;;;;;;;;5064917;28;20453;-72
2021/01/06 06:14:19;;;;;;;41.27;19.10;;;;;;;;;;5067532;28;20440;-72
2021/01/06 06:16:54;;;;;;;41.87;20.57;;;;;;;;;;5061973;28;20484;-72
2021/01/06 06:19:29;;;;;;;41.30;18.13;;;;;;;;;;5063937;28;20460;-72
2021/01/06 06:22:05;;;;;;;41.57;19.40;;;;;;;;;;5073524;28;20467;-72
2021/01/06 06:24:35;;;;;;;40.87;19.13;;;;;;;;;;5065410;28;20460;-72
2021/01/06 06:27:11;;;;;;;41.23;20.37;;;;;;;;;;5071943;28;20459;-72
2021/01/06 06:29:42;;;;;;;41.70;19.60;;;;;;;;;;5063775;28;20456;-71
2021/01/06 06:32:09;;;;;;;46.53;20.47;;;;;;;;;;5068637;28;20873;-71
2021/01/06 06:34:37;;;;;;;44.03;19.43;;;;;;;;;;5070223;28;20452;-72
2021/01/06 06:37:06;;;;;;;39.07;19.43;;;;;;;;;;5067980;28;20496;-72
2021/01/06 06:39:34;;;;;;;48.67;19.70;;;;;;;;;;5060857;28;20461;-71
2021/01/06 06:42:03;;;;;;;41.30;21.57;;;;;;;;;;5072459;28;20452;-72
2021/01/06 06:44:31;;;;;;;44.67;20.80;;;;;;;;;;5071940;28;20904;-72
2021/01/06 06:47:11;;;;;;;40.23;19.93;;;;;;;;;;5065044;28;20472;-72
2021/01/06 06:49:42;;;;;;;41.60;20.10;;;;;;;;;;5069810;28;20445;-72
2021/01/06 06:52:14;;;;;;;43.43;20.73;;;;;;;;;;5067625;28;20451;-72
2021/01/06 06:54:45;;;;;;;38.77;19.93;;;;;;;;;;5066957;28;20988;-72
2021/01/06 06:57:16;;;;;;;45.53;20.63;;;;;;;;;;5064021;28;20481;-72
2021/01/06 06:59:50;;;;;;;38.20;19.93;;;;;;;;;;5073643;28;20453;-72
2021/01/06 07:02:17;;;;;;;36.97;20.53;;;;;;;;;;5067337;28;20479;-72
2021/01/06 07:04:45;;;;;;;44.47;21.60;;;;;;;;;;5078359;28;20453;-72
2021/01/06 07:07:24;;;;;;;42.20;22.20;;;;;;;;;;5062977;28;20988;-72
2021/01/06 07:09:51;;;;;;;42.23;22.80;;;;;;;;;;5072616;28;20487;-72
2021/01/06 07:12:18;;;;;;;49.87;22.97;;;;;;;;;;5062837;28;20458;-72
2021/01/06 07:14:49;;;;;;;41.77;23.53;;;;;;;;;;5068712;28;20802;-72
2021/01/06 07:17:27;;;;;;;67.50;32.40;;;;;;;;;;5060160;28;20493;-72
2021/01/06 07:19:58;;;;;;;68.43;32.60;;;;;;;;;;5064862;28;20454;-72
2021/01/06 07:22:29;;;;;;;56.30;28.70;;;;;;;;;;5060370;28;20445;-72
2021/01/06 07:24:57;;;;;;;41.93;21.23;;;;;;;;;;5062789;28;20488;-72
2021/01/06 07:27:28;;;;;;;44.43;23.80;;;;;;;;;;5065404;28;20472;-72
2021/01/06 07:29:54;;;;;;;46.23;19.50;;;;;;;;;;5061038;28;20457;-72
2021/01/06 07:32:23;;;;;;;43.30;19.97;;;;;;;;;;5065941;28;20476;-72
2021/01/06 07:34:51;;;;;;;42.20;20.97;;;;;;;;;;5067915;28;20445;-72
2021/01/06 07:37:31;;;;;;;52.10;20.13;;;;;;;;;;5072679;28;20489;-72
2021/01/06 07:39:59;;;;;;;37.73;19.03;;;;;;;;;;5065292;28;20464;-72
2021/01/06 07:42:32;;;;;;;48.50;21.60;;;;;;;;;;5067453;28;20475;-72
2021/01/06 07:45:08;;;;;;;38.73;19.87;;;;;;;;;;5064148;28;20449;-72
2021/01/06 07:47:36;;;;;;;49.80;24.20;;;;;;;;;;5066575;28;20468;-71
2021/01/06 07:50:09;;;;;;;49.43;23.30;;;;;;;;;;5062759;28;20528;-72
2021/01/06 07:52:47;;;;;;;42.63;20.27;;;;;;;;;;5064534;28;20453;-71
2021/01/06 07:55:25;;;;;;;43.50;22.10;;;;;;;;;;5063493;28;20553;-72
2021/01/06 07:57:55;;;;;;;42.13;21.20;;;;;;;;;;5071698;28;20489;-72
2021/01/06 08:00:27;;;;;;;51.00;24.83;;;;;;;;;;5064751;28;20445;-71
2021/01/06 08:02:59;;;;;;;51.03;23.53;;;;;;;;;;5065229;28;21491;-71
2021/01/06 08:05:27;;;;;;;47.47;22.63;;;;;;;;;;5072148;28;20808;-72
2021/01/06 08:08:05;;;;;;;47.63;21.17;;;;;;;;;;5071429;28;20479;-71
2021/01/06 08:10:32;;;;;;;58.80;28.53;;;;;;;;;;5064563;28;20457;-72
2021/01/06 08:13:09;;;;;;;49.77;21.67;;;;;;;;;;5066475;28;20461;-71
2021/01/06 08:15:36;;;;;;;41.63;21.10;;;;;;;;;;5067532;28;20460;-72
2021/01/06 08:18:05;;;;;;;51.60;22.50;;;;;;;;;;5070073;28;20561;-72
2021/01/06 08:20:34;;;;;;;61.80;24.77;;;;;;;;;;5068671;28;20441;-72
2021/01/06 08:23:04;;;;;;;44.83;22.87;;;;;;;;;;5065687;28;21023;-72
2021/01/06 08:25:34;;;;;;;41.60;23.00;;;;;;;;;;5069092;28;20461;-72
2021/01/06 08:28:00;;;;;;;51.20;23.20;;;;;;;;;;5070462;28;20453;-72
2021/01/06 08:30:28;;;;;;;50.00;22.40;;;;;;;;;;5070426;28;20983;-72
2021/01/06 08:33:02;;;;;;;52.73;22.77;;;;;;;;;;5065736;28;20449;-72
2021/01/06 08:35:31;;;;;;;53.33;23.67;;;;;;;;;;5080242;28;20962;-72
2021/01/06 08:37:57;;;;;;;50.03;25.13;;;;;;;;;;5073061;28;21357;-72
2021/01/06 08:40:26;;;;;;;59.10;25.40;;;;;;;;;;5068574;28;20461;-72
2021/01/06 08:42:54;;;;;;;62.10;25.30;;;;;;;;;;5078645;28;20855;-72
2021/01/06 08:45:22;;;;;;;52.70;23.03;;;;;;;;;;5059813;28;20453;-72
2021/01/06 08:47:48;;;;;;;41.77;22.43;;;;;;;;;;5061261;28;20472;-72
2021/01/06 08:50:36;;;;;;;48.90;23.80;;;;;;;;;;5066793;28;20500;-72
2021/01/06 08:53:03;;;;;;;46.67;21.70;;;;;;;;;;5063530;28;20460;-72
2021/01/06 08:55:31;;;;;;;47.83;22.03;;;;;;;;;;5067830;28;20453;-72
2021/01/06 08:58:00;;;;;;;49.07;23.77;;;;;;;;;;5074551;28;20996;-72
2021/01/06 09:00:28;;;;;;;52.90;23.93;;;;;;;;;;5068706;28;20450;-72
2021/01/06 09:02:57;;;;;;;48.80;24.27;;;;;;;;;;5058527;28;20462;-72
2021/01/06 09:05:46;;;;;;;47.60;24.60;;;;;;;;;;5068032;28;20457;-72
2021/01/06 09:08:15;;;;;;;42.70;21.00;;;;;;;;;;5068094;28;20473;-72
2021/01/06 09:10:44;;;;;;;48.90;22.87;;;;;;;;;;5067150;28;20457;-72
2021/01/06 09:13:14;;;;;;;41.20;21.40;;;;;;;;;;5069104;28;20537;-72
2021/01/06 09:15:46;;;;;;;40.50;20.30;;;;;;;;;;5067397;28;20471;-72
2021/01/06 09:18:15;;;;;;;49.47;24.00;;;;;;;;;;5070588;28;20848;-71
2021/01/06 09:20:52;;;;;;;49.63;23.73;;;;;;;;;;5070288;28;20847;-72
2021/01/06 09:23:20;;;;;;;44.07;24.50;;;;;;;;;;5071846;28;20920;-72
2021/01/06 09:25:46;;;;;;;53.03;24.03;;;;;;;;;;5067262;28;20536;-72
2021/01/06 09:28:14;;;;;;;50.27;23.23;;;;;;;;;;5071530;28;20468;-72
2021/01/06 09:30:41;;;;;;;47.47;25.48;;;;;;;;;;5069154;28;20482;-70
2021/01/06 09:33:13;;;;;;;48.93;25.60;;;;;;;;;;5068563;28;20203;-69
2021/01/06 09:35:40;;;;;;;40.93;22.67;;;;;;;;;;5071118;28;20507;-70
2021/01/06 09:38:09;;;;;;;58.17;23.70;;;;;;;;;;5065115;28;20491;-70
2021/01/06 09:40:37;;;;;;;51.93;24.30;;;;;;;;;;5064850;28;20461;-70
2021/01/06 09:43:06;;;;;;;47.10;21.40;;;;;;;;;;5068582;28;20468;-70
2021/01/06 09:45:34;;;;;;;55.27;24.10;;;;;;;;;;5066093;28;20507;-70
2021/01/06 09:48:02;;;;;;;53.83;25.60;;;;;;;;;;5067164;28;20515;-70
2021/01/06 09:50:31;;;;;;;48.03;23.93;;;;;;;;;;5067480;28;20461;-70
2021/01/06 09:52:59;;;;;;;52.30;23.43;;;;;;;;;;5073496;28;20445;-70
2021/01/06 09:55:27;;;;;;;50.83;22.80;;;;;;;;;;5064352;28;20491;-71
2021/01/06 09:57:57;;;;;;;49.67;24.40;;;;;;;;;;5067864;28;20489;-70
2021/01/06 10:00:32;;;;;;;47.63;23.00;;;;;;;;;;5063725;28;20453;-70
2021/01/06 10:03:00;;;;;;;51.27;24.80;;;;;;;;;;5066073;28;20450;-70
2021/01/06 10:05:36;;;;;;;49.10;24.07;;;;;;;;;;5065020;28;20891;-70
2021/01/06 10:08:12;;;;;;;49.03;22.23;;;;;;;;;;5070480;28;20473;-71
2021/01/06 10:10:40;;;;;;;48.47;23.07;;;;;;;;;;5063844;28;20456;-71
2021/01/06 10:13:11;;;;;;;50.60;24.60;;;;;;;;;;5072343;28;20872;-70
2021/01/06 10:15:53;;;;;;;57.10;24.47;;;;;;;;;;5063192;28;20578;-70
2021/01/06 10:18:29;;;;;;;47.17;23.43;;;;;;;;;;5069578;28;20487;-70
2021/01/06 10:20:59;;;;;;;44.97;22.27;;;;;;;;;;5061300;28;20513;-70
2021/01/06 10:23:32;;;;;;;46.70;22.63;;;;;;;;;;5054940;28;20457;-71
2021/01/06 10:26:04;;;;;;;40.63;21.87;;;;;;;;;;5065974;28;20441;-70
2021/01/06 10:28:37;;;;;;;47.63;22.70;;;;;;;;;;5064388;28;20473;-70
2021/01/06 10:31:06;;;;;;;53.43;26.43;;;;;;;;;;5066397;28;20510;-72
2021/01/06 10:33:34;;;;;;;50.90;26.80;;;;;;;;;;5067305;28;20585;-72
2021/01/06 10:36:09;;;;;;;46.70;22.90;;;;;;;;;;5066369;28;20884;-71
2021/01/06 10:38:48;;;;;;;48.90;24.70;;;;;;;;;;5068476;28;20480;-70
2021/01/06 10:41:23;;;;;;;60.77;24.50;;;;;;;;;;5066675;28;20451;-69
2021/01/06 10:43:51;;;;;;;55.30;26.80;;;;;;;;;;5071554;28;20467;-70
2021/01/06 10:46:33;;;;;;;47.03;21.60;;;;;;;;;;5076445;28;20451;-69
2021/01/06 10:49:01;;;;;;;48.37;23.57;;;;;;;;;;5065482;28;20443;-70
2021/01/06 10:51:46;;;;;;;53.70;24.37;;;;;;;;;;5063339;28;20514;-70
2021/01/06 10:54:14;;;;;;;58.37;25.47;;;;;;;;;;5067069;28;20460;-69
2021/01/06 10:56:41;;;;;;;47.43;23.63;;;;;;;;;;5081437;28;20514;-69
2021/01/06 10:59:08;;;;;;;44.40;21.93;;;;;;;;;;5064569;28;20457;-70
2021/01/06 11:01:56;;;;;;;47.87;20.83;;;;;;;;;;5065472;28;20531;-70
2021/01/06 11:04:30;;;;;;;48.77;22.50;;;;;;;;;;5066977;28;20828;-69
2021/01/06 11:07:01;;;;;;;49.17;22.63;;;;;;;;;;5069648;28;20557;-70
2021/01/06 11:09:49;;;;;;;51.57;22.60;;;;;;;;;;5065682;28;20953;-69
2021/01/06 11:12:22;;;;;;;53.00;23.43;;;;;;;;;;5037501;28;20461;-70
2021/01/06 11:14:56;;;;;;;45.13;24.50;;;;;;;;;;5067260;28;20454;-71
2021/01/06 11:17:29;;;;;;;42.30;22.50;;;;;;;;;;5058934;28;20550;-69
2021/01/06 11:19:58;;;;;;;48.30;25.93;;;;;;;;;;5068216;28;20834;-70
2021/01/06 11:22:37;;;;;;;46.93;23.30;;;;;;;;;;5059324;28;20457;-68
2021/01/06 11:25:05;;;;;;;46.47;22.90;;;;;;;;;;5058356;28;20453;-69
2021/01/06 11:27:39;;;;;;;39.40;21.63;;;;;;;;;;5061978;28;20466;-69
2021/01/06 11:30:26;;;;;;;46.67;22.80;;;;;;;;;;5069638;28;20821;-70
2021/01/06 11:33:14;;;;;;;42.23;20.83;;;;;;;;;;5059264;28;20472;-70
2021/01/06 11:35:47;;;;;;;49.73;23.90;;;;;;;;;;5056497;28;20870;-69
2021/01/06 11:38:34;;;;;;;49.07;23.43;;;;;;;;;;5068537;28;20504;-69
2021/01/06 11:41:00;;;;;;;42.70;21.13;;;;;;;;;;5070580;28;20444;-68
2021/01/06 11:43:36;;;;;;;45.37;21.00;;;;;;;;;;5074816;28;20479;-69
2021/01/06 11:46:13;;;;;;;37.47;20.93;;;;;;;;;;5077852;28;20450;-68
2021/01/06 11:48:40;;;;;;;39.93;20.17;;;;;;;;;;5068599;28;20477;-70
2021/01/06 11:51:19;;;;;;;42.40;22.50;;;;;;;;;;5071988;28;20455;-69
2021/01/06 11:53:47;;;;;;;42.13;21.77;;;;;;;;;;5066832;28;20982;-69
2021/01/06 11:56:17;;;;;;;40.87;22.00;;;;;;;;;;5073903;28;20890;-69
2021/01/06 11:59:03;;;;;;;43.63;21.07;;;;;;;;;;5068532;28;20466;-69
2021/01/06 12:01:38;;;;;;;40.53;20.33;;;;;;;;;;5070377;28;20965;-69
2021/01/06 12:04:22;;;;;;;39.60;20.17;;;;;;;;;;5073540;28;20448;-69
2021/01/06 12:07:03;;;;;;;38.33;19.60;;;;;;;;;;5064912;28;20883;-69
2021/01/06 12:09:36;;;;;;;45.90;20.53;;;;;;;;;;5065846;28;20824;-70
2021/01/06 12:12:08;;;;;;;41.93;20.57;;;;;;;;;;5060475;28;20453;-69
2021/01/06 12:14:38;;;;;;;38.67;19.83;;;;;;;;;;5064271;28;20543;-69
2021/01/06 12:17:15;;;;;;;37.50;20.43;;;;;;;;;;5066851;28;20480;-69
2021/01/06 12:19:51;;;;;;;42.33;20.97;;;;;;;;;;5067020;28;20455;-69
2021/01/06 12:22:20;;;;;;;34.23;18.67;;;;;;;;;;5073836;28;20463;-71
2021/01/06 12:25:01;;;;;;;37.53;18.77;;;;;;;;;;5066302;28;20501;-69
2021/01/06 12:27:37;;;;;;;40.73;19.20;;;;;;;;;;5072150;28;20464;-69
2021/01/06 12:30:13;;;;;;;39.23;20.67;;;;;;;;;;5089950;28;20443;-69
2021/01/06 12:32:43;;;;;;;71.67;20.23;;;;;;;;;;5078373;28;20464;-69
2021/01/06 12:35:23;;;;;;;45.40;22.73;;;;;;;;;;5074298;28;20437;-70
2021/01/06 12:37:58;;;;;;;37.23;19.70;;;;;;;;;;5073808;28;20537;-69
2021/01/06 12:40:25;;;;;;;39.93;20.63;;;;;;;;;;5079098;28;20949;-69
2021/01/06 12:42:54;;;;;;;34.70;18.43;;;;;;;;;;5071332;28;20469;-69
2021/01/06 12:45:22;;;;;;;37.93;19.23;;;;;;;;;;5068189;28;20445;-69
2021/01/06 12:48:05;;;;;;;34.00;19.77;;;;;;;;;;5072632;28;20475;-70
2021/01/06 12:50:36;;;;;;;38.73;19.43;;;;;;;;;;5061861;28;20452;-70
2021/01/06 12:53:12;;;;;;;40.83;22.30;;;;;;;;;;5067508;28;20437;-69
2021/01/06 12:55:47;;;;;;;39.50;19.80;;;;;;;;;;5077516;28;20463;-69
2021/01/06 12:58:17;;;;;;;43.50;21.17;;;;;;;;;;5080078;28;20491;-69
2021/01/06 13:00:45;;;;;;;48.27;20.93;;;;;;;;;;5086953;28;20819;-69
2021/01/06 13:03:30;;;;;;;38.20;20.97;;;;;;;;;;5080745;28;20448;-69
2021/01/06 13:05:59;;;;;;;39.40;21.00;;;;;;;;;;5080785;28;20444;-70
2021/01/06 13:08:31;;;;;;;44.97;20.83;;;;;;;;;;5071492;28;20519;-70
2021/01/06 13:11:06;;;;;;;44.53;22.93;;;;;;;;;;5071575;28;20441;-69
2021/01/06 13:13:34;;;;;;;41.23;22.40;;;;;;;;;;5074728;28;20456;-70
2021/01/06 13:16:02;;;;;;;38.70;21.17;;;;;;;;;;5071602;28;20833;-69
2021/01/06 13:18:37;;;;;;;41.00;21.20;;;;;;;;;;5067685;28;20997;-69
2021/01/06 13:21:06;;;;;;;39.03;20.90;;;;;;;;;;5067650;28;20506;-72
2021/01/06 13:23:39;;;;;;;55.90;23.03;;;;;;;;;;5065384;28;20831;-69
2021/01/06 13:26:24;;;;;;;40.03;20.50;;;;;;;;;;5065401;28;20475;-70
2021/01/06 13:28:52;;;;;;;39.67;21.70;;;;;;;;;;5062257;28;20440;-69
2021/01/06 13:31:24;;;;;;;40.10;23.63;;;;;;;;;;5066703;28;20461;-70
2021/01/06 13:33:52;;;;;;;42.70;23.20;;;;;;;;;;5073424;28;20447;-69
2021/01/06 13:36:22;;;;;;;40.40;20.13;;;;;;;;;;5071499;28;20535;-69
2021/01/06 13:38:57;;;;;;;37.83;21.10;;;;;;;;;;5066252;28;20458;-71
2021/01/06 13:41:25;;;;;;;45.80;22.53;;;;;;;;;;5071765;28;20444;-70
2021/01/06 13:43:54;;;;;;;40.27;20.00;;;;;;;;;;5078207;28;21010;-69
2021/01/06 13:46:28;;;;;;;37.37;21.10;;;;;;;;;;5079033;28;20861;-69
2021/01/06 13:49:05;;;;;;;35.07;21.40;;;;;;;;;;5072281;28;20452;-69
2021/01/06 13:51:38;;;;;;;42.50;23.17;;;;;;;;;;5058935;28;20880;-69
2021/01/06 13:54:10;;;;;;;39.60;21.30;;;;;;;;;;5066994;28;20448;-69
2021/01/06 13:56:41;;;;;;;42.70;23.33;;;;;;;;;;5077341;28;21020;-70
2021/01/06 13:59:17;;;;;;;48.17;22.87;;;;;;;;;;5070497;28;20506;-70
2021/01/06 14:01:47;;;;;;;34.67;20.97;;;;;;;;;;5074913;28;20852;-69
2021/01/06 14:04:16;;;;;;;36.93;22.70;;;;;;;;;;5075996;28;20458;-69
2021/01/06 14:06:49;;;;;;;41.23;22.03;;;;;;;;;;5085308;28;20436;-70
2021/01/06 14:09:24;;;;;;;43.70;22.63;;;;;;;;;;5072735;28;20453;-70
2021/01/06 14:12:00;;;;;;;42.53;22.73;;;;;;;;;;5064788;28;20796;-69
2021/01/06 14:14:33;;;;;;;39.50;21.60;;;;;;;;;;5070890;28;20437;-69
2021/01/06 14:17:03;;;;;;;39.33;22.83;;;;;;;;;;5059947;28;20484;-70
2021/01/06 14:20:00;;;;;;;35.13;22.30;;;;;;;;;;5061643;28;21125;-70
2021/01/06 14:22:30;;;;;;;41.03;21.30;;;;;;;;;;5060429;28;20471;-69
2021/01/06 14:24:57;;;;;;;42.07;25.10;;;;;;;;;;5066183;28;20472;-69
2021/01/06 14:27:42;;;;;;;45.90;23.57;;;;;;;;;;5074958;28;20888;-70
2021/01/06 14:30:15;;;;;;;43.03;23.50;;;;;;;;;;5070390;28;20453;-69
2021/01/06 14:32:43;;;;;;;37.50;21.07;;;;;;;;;;5064215;28;20886;-69
2021/01/06 14:35:29;;;;;;;39.27;20.03;;;;;;;;;;5070870;28;20795;-69
2021/01/06 14:38:16;;;;;;;34.97;20.00;;;;;;;;;;5069525;28;20492;-69